createdAt,value
2019-03-19T00:00:47.432Z,96333.00
2019-03-19T00:03:19.410Z,96328.00
2019-03-19T00:05:51.259Z,96326.00
2019-03-19T00:08:23.110Z,96316.00
2019-03-19T00:10:55.106Z,96319.00
2019-03-19T00:13:27.379Z,96321.00
2019-03-19T00:15:59.194Z,96321.00
2019-03-19T00:18:31.142Z,96320.00
2019-03-19T00:21:02.954Z,96324.00
2019-03-19T00:23:35.220Z,96316.00
2019-03-19T00:26:07.318Z,96327.00
2019-03-19T00:28:39.436Z,96332.00
2019-03-19T00:31:11.835Z,96337.00
2019-03-19T00:33:43.988Z,96327.00
2019-03-19T00:36:17.551Z,96328.00
2019-03-19T00:38:49.822Z,96328.00
2019-03-19T00:41:22.333Z,96332.00
2019-03-19T00:43:56.630Z,96343.00
2019-03-19T00:46:28.888Z,96334.00
2019-03-19T00:49:00.850Z,96333.00
2019-03-19T00:51:33.081Z,96327.00
2019-03-19T00:54:04.962Z,96334.00
2019-03-19T00:56:36.827Z,96338.00
2019-03-19T00:59:08.643Z,96333.00
2019-03-19T01:01:40.535Z,96331.00
2019-03-19T01:04:12.354Z,96339.00
2019-03-19T01:06:44.531Z,96338.00
2019-03-19T01:09:16.617Z,96336.00
2019-03-19T01:11:48.911Z,96347.00
2019-03-19T01:14:20.737Z,96341.00
2019-03-19T01:16:52.871Z,96332.00
2019-03-19T01:19:24.674Z,96331.00
2019-03-19T01:21:56.792Z,96339.00
2019-03-19T01:24:28.904Z,96336.00
2019-03-19T01:27:00.755Z,96336.00
2019-03-19T01:29:32.929Z,96338.00
2019-03-19T01:32:04.806Z,96330.00
2019-03-19T01:34:37.312Z,96326.00
2019-03-19T01:37:09.981Z,96331.00
2019-03-19T01:39:41.846Z,96331.00
2019-03-19T01:42:13.668Z,96326.00
2019-03-19T01:44:45.827Z,96322.00
2019-03-19T01:47:18.380Z,96327.00
2019-03-19T01:49:50.621Z,96332.00
2019-03-19T01:52:22.441Z,96327.00
2019-03-19T01:54:54.322Z,96332.00
2019-03-19T01:57:26.424Z,96342.00
2019-03-19T01:59:58.596Z,96340.00
2019-03-19T02:02:30.676Z,96339.00
2019-03-19T02:05:02.576Z,96343.00
2019-03-19T02:07:34.822Z,96334.00
2019-03-19T02:10:07.841Z,96337.00
2019-03-19T02:12:39.669Z,96336.00
2019-03-19T02:15:12.577Z,96327.00
2019-03-19T02:17:44.376Z,96326.00
2019-03-19T02:20:16.239Z,96332.00
2019-03-19T02:22:48.047Z,96330.00
2019-03-19T02:25:19.866Z,96330.00
2019-03-19T02:27:51.649Z,96327.00
2019-03-19T02:30:23.518Z,96337.00
2019-03-19T02:32:55.295Z,96329.00
2019-03-19T02:35:27.656Z,96332.00
2019-03-19T02:37:59.439Z,96326.00
2019-03-19T02:40:31.293Z,96332.00
2019-03-19T02:43:03.077Z,96332.00
2019-03-19T02:45:34.891Z,96343.00
2019-03-19T02:48:07.049Z,96332.00
2019-03-19T02:50:39.013Z,96341.00
2019-03-19T02:53:10.904Z,96352.00
2019-03-19T02:55:42.801Z,96337.00
2019-03-19T02:58:14.886Z,96342.00
2019-03-19T03:00:47.076Z,96344.00
2019-03-19T03:03:18.884Z,96348.00
2019-03-19T03:05:50.772Z,96357.00
2019-03-19T03:08:22.590Z,96362.00
2019-03-19T03:10:54.458Z,96352.00
2019-03-19T03:13:26.269Z,96362.00
2019-03-19T03:15:58.150Z,96362.00
2019-03-19T03:18:29.954Z,96366.00
2019-03-19T03:21:01.907Z,96358.00
2019-03-19T03:23:33.938Z,96358.00
2019-03-19T03:26:05.880Z,96361.00
2019-03-19T03:28:37.718Z,96366.00
2019-03-19T03:31:10.057Z,96358.00
2019-03-19T03:33:41.906Z,96363.00
2019-03-19T03:36:13.765Z,96357.00
2019-03-19T03:38:45.955Z,96351.00
2019-03-19T03:41:17.812Z,96374.00
2019-03-19T03:43:49.919Z,96375.00
2019-03-19T03:46:21.786Z,96376.00
2019-03-19T03:48:53.596Z,96374.00
2019-03-19T03:51:25.495Z,96378.00
2019-03-19T03:53:57.614Z,96387.00
2019-03-19T03:56:29.469Z,96382.00
2019-03-19T03:59:01.682Z,96379.00
2019-03-19T04:01:33.889Z,96386.00
2019-03-19T04:04:05.732Z,96392.00
2019-03-19T04:06:38.295Z,96399.00
2019-03-19T04:09:10.407Z,96394.00
2019-03-19T04:11:42.278Z,96399.00
2019-03-19T04:14:14.112Z,96403.00
2019-03-19T04:16:45.965Z,96409.00
2019-03-19T04:19:17.782Z,96406.00
2019-03-19T04:21:50.128Z,96413.00
2019-03-19T04:24:21.962Z,96407.00
2019-03-19T04:26:54.203Z,96417.00
2019-03-19T04:29:26.323Z,96420.00
2019-03-19T04:31:58.536Z,96438.00
2019-03-19T04:34:30.887Z,96422.00
2019-03-19T04:37:03.366Z,96422.00
2019-03-19T04:39:35.502Z,96436.00
2019-03-19T04:42:07.443Z,96438.00
2019-03-19T04:44:39.237Z,96437.00
2019-03-19T04:47:11.390Z,96423.00
2019-03-19T04:49:43.520Z,96426.00
2019-03-19T04:52:15.660Z,96432.00
2019-03-19T04:54:47.555Z,96436.00
2019-03-19T04:57:26.868Z,96441.00
2019-03-19T04:59:53.344Z,96439.00
2019-03-19T05:02:25.157Z,96445.00
2019-03-19T05:04:57.306Z,96443.00
2019-03-19T05:07:29.139Z,96444.00
2019-03-19T05:10:01.267Z,96450.00
2019-03-19T05:12:33.496Z,96447.00
2019-03-19T05:15:06.213Z,96442.00
2019-03-19T05:17:38.062Z,96449.00
2019-03-19T05:20:10.636Z,96440.00
2019-03-19T05:22:43.435Z,96466.00
2019-03-19T05:25:15.295Z,96455.00
2019-03-19T05:27:48.152Z,96464.00
2019-03-19T05:30:20.321Z,96461.00
2019-03-19T05:32:52.443Z,96457.00
2019-03-19T05:35:24.292Z,96456.00
2019-03-19T05:37:56.468Z,96457.00
2019-03-19T05:40:28.336Z,96461.00
2019-03-19T05:43:00.159Z,96465.00
2019-03-19T05:45:32.279Z,96462.00
2019-03-19T05:48:04.633Z,96476.00
2019-03-19T05:50:36.497Z,96469.00
2019-03-19T05:53:08.747Z,96473.00
2019-03-19T05:55:40.661Z,96478.00
2019-03-19T05:58:12.745Z,96491.00
2019-03-19T06:00:44.599Z,96488.00
2019-03-19T06:03:16.409Z,96485.00
2019-03-19T06:05:48.318Z,96494.00
2019-03-19T06:08:20.421Z,96496.00
2019-03-19T06:10:52.679Z,96498.00
2019-03-19T06:13:25.594Z,96495.00
2019-03-19T06:15:57.458Z,96500.00
2019-03-19T06:18:35.207Z,96494.00
2019-03-19T06:21:03.127Z,96506.00
2019-03-19T06:23:34.948Z,96512.00
2019-03-19T06:26:06.929Z,96510.00
2019-03-19T06:28:38.747Z,96508.00
2019-03-19T06:31:10.876Z,96509.00
2019-03-19T06:33:42.809Z,96502.00
2019-03-19T06:36:14.935Z,96508.00
2019-03-19T06:38:47.049Z,96515.00
2019-03-19T06:41:18.954Z,96515.00
2019-03-19T06:43:50.879Z,96518.00
2019-03-19T06:46:23.356Z,96515.00
2019-03-19T06:48:55.255Z,96522.00
2019-03-19T06:51:27.262Z,96518.00
2019-03-19T06:53:59.436Z,96516.00
2019-03-19T06:56:31.666Z,96514.00
2019-03-19T06:59:03.785Z,96520.00
2019-03-19T07:01:36.203Z,96526.00
2019-03-19T07:04:08.305Z,96517.00
2019-03-19T07:06:40.525Z,96515.00
2019-03-19T07:09:13.255Z,96509.00
2019-03-19T07:11:45.154Z,96517.00
2019-03-19T07:14:17.001Z,96519.00
2019-03-19T07:16:48.867Z,96522.00
2019-03-19T07:19:20.793Z,96520.00
2019-03-19T07:21:52.616Z,96519.00
2019-03-19T07:24:24.514Z,96529.00
2019-03-19T07:26:56.944Z,96536.00
2019-03-19T07:29:29.922Z,96523.00
2019-03-19T07:32:01.840Z,96522.00
2019-03-19T07:34:33.676Z,96532.00
2019-03-19T07:37:05.590Z,96534.00
2019-03-19T07:39:37.452Z,96537.00
2019-03-19T07:42:09.394Z,96543.00
2019-03-19T07:44:41.404Z,96543.00
2019-03-19T07:47:13.481Z,96543.00
2019-03-19T07:49:45.807Z,96553.00
2019-03-19T07:52:17.627Z,96556.00
2019-03-19T07:54:50.271Z,96552.00
2019-03-19T07:57:22.481Z,96555.00
2019-03-19T07:59:54.896Z,96549.00
2019-03-19T08:02:26.847Z,96550.00
2019-03-19T08:04:58.690Z,96546.00
2019-03-19T08:07:30.518Z,96553.00
2019-03-19T08:10:02.382Z,96555.00
2019-03-19T08:12:34.222Z,96560.00
2019-03-19T08:15:08.687Z,96559.00
2019-03-19T08:17:42.807Z,96569.00
2019-03-19T08:20:14.491Z,96558.00
2019-03-19T08:22:46.398Z,96560.00
2019-03-19T08:25:18.817Z,96563.00
2019-03-19T08:27:50.792Z,96561.00
2019-03-19T08:30:24.483Z,96565.00
2019-03-19T08:32:56.450Z,96564.00
2019-03-19T08:35:28.428Z,96562.00
2019-03-19T08:38:00.287Z,96558.00
2019-03-19T08:40:32.393Z,96560.00
2019-03-19T08:43:04.629Z,96560.00
2019-03-19T08:45:36.471Z,96555.00
2019-03-19T08:48:08.427Z,96561.00
2019-03-19T08:50:40.600Z,96558.00
2019-03-19T08:53:12.536Z,96554.00
2019-03-19T08:55:44.751Z,96558.00
2019-03-19T08:58:16.911Z,96568.00
2019-03-19T09:00:48.724Z,96570.00
2019-03-19T09:03:20.938Z,96575.00
2019-03-19T09:05:52.771Z,96570.00
2019-03-19T09:08:25.287Z,96578.00
2019-03-19T09:10:57.116Z,96589.00
2019-03-19T09:13:29.269Z,96585.00
2019-03-19T09:16:01.754Z,96575.00
2019-03-19T09:18:33.913Z,96577.00
2019-03-19T09:21:05.739Z,96578.00
2019-03-19T09:23:37.875Z,96588.00
2019-03-19T09:26:10.003Z,96579.00
2019-03-19T09:28:42.586Z,96578.00
2019-03-19T09:31:14.542Z,96585.00
2019-03-19T09:33:46.436Z,96591.00
2019-03-19T09:36:18.535Z,96585.00
2019-03-19T09:38:50.403Z,96583.00
2019-03-19T09:41:22.294Z,96593.00
2019-03-19T09:43:54.140Z,96588.00
2019-03-19T09:46:26.018Z,96593.00
2019-03-19T09:48:58.221Z,96587.00
2019-03-19T09:51:30.254Z,96600.00
2019-03-19T09:54:02.162Z,96613.00
2019-03-19T09:56:34.176Z,96611.00
2019-03-19T09:59:06.119Z,96599.00
2019-03-19T10:01:38.184Z,96604.00
2019-03-19T10:04:10.867Z,96595.00
2019-03-19T10:06:42.813Z,96575.00
2019-03-19T10:09:14.643Z,96573.00
2019-03-19T10:11:46.576Z,96578.00
2019-03-19T10:14:18.439Z,96580.00
2019-03-19T10:16:50.591Z,96580.00
2019-03-19T10:19:23.192Z,96591.00
2019-03-19T10:21:55.482Z,96596.00
2019-03-19T10:24:28.392Z,96609.00
2019-03-19T10:27:00.291Z,96598.00
2019-03-19T10:29:38.260Z,96607.00
2019-03-19T10:32:06.034Z,96597.00
2019-03-19T10:34:37.906Z,96600.00
2019-03-19T10:37:09.789Z,96602.00
2019-03-19T10:39:41.911Z,96596.00
2019-03-19T10:42:13.803Z,96587.00
2019-03-19T10:44:45.634Z,96581.00
2019-03-19T10:47:17.594Z,96585.00
2019-03-19T10:49:49.447Z,96583.00
2019-03-19T10:52:21.351Z,96596.00
2019-03-19T10:54:53.574Z,96588.00
2019-03-19T10:57:25.728Z,96591.00
2019-03-19T11:00:08.665Z,96607.00
2019-03-19T11:02:40.551Z,96619.00
2019-03-19T11:05:12.978Z,96621.00
2019-03-19T11:07:45.173Z,96622.00
2019-03-19T11:10:17.028Z,96619.00
2019-03-19T11:12:49.198Z,96631.00
2019-03-19T11:15:21.365Z,96633.00
2019-03-19T11:17:53.299Z,96636.00
2019-03-19T11:20:25.402Z,96637.00
2019-03-19T11:22:57.730Z,96637.00
2019-03-19T11:25:29.572Z,96642.00
2019-03-19T11:28:01.508Z,96626.00
2019-03-19T11:30:33.550Z,96630.00
2019-03-19T11:33:05.400Z,96629.00
2019-03-19T11:35:37.285Z,96628.00
2019-03-19T11:38:09.694Z,96631.00
2019-03-19T11:40:41.539Z,96620.00
2019-03-19T11:43:13.806Z,96627.00
2019-03-19T11:45:45.931Z,96617.00
2019-03-19T11:48:17.792Z,96614.00
2019-03-19T11:50:49.977Z,96605.00
2019-03-19T11:53:22.225Z,96606.00
2019-03-19T11:55:55.002Z,96596.00
2019-03-19T11:58:28.473Z,96588.00
2019-03-19T12:01:01.525Z,96583.00
2019-03-19T12:03:33.451Z,96583.00
2019-03-19T12:06:05.271Z,96595.00
2019-03-19T12:08:37.142Z,96598.00
2019-03-19T12:11:08.958Z,96606.00
2019-03-19T12:13:41.444Z,96608.00
2019-03-19T12:16:13.324Z,96611.00
2019-03-19T12:18:45.148Z,96605.00
2019-03-19T12:21:17.002Z,96612.00
2019-03-19T12:23:49.213Z,96617.00
2019-03-19T12:26:21.082Z,96615.00
2019-03-19T12:28:53.219Z,96617.00
2019-03-19T12:31:25.076Z,96616.00
2019-03-19T12:33:56.886Z,96607.00
2019-03-19T12:36:29.036Z,96622.00
2019-03-19T12:39:00.913Z,96617.00
2019-03-19T12:41:32.848Z,96622.00
2019-03-19T12:44:05.032Z,96617.00
2019-03-19T12:46:36.972Z,96618.00
2019-03-19T12:49:08.843Z,96619.00
2019-03-19T12:51:40.709Z,96611.00
2019-03-19T12:54:12.864Z,96612.00
2019-03-19T12:56:45.327Z,96612.00
2019-03-19T12:59:20.452Z,96603.00
2019-03-19T13:01:51.602Z,96601.00
2019-03-19T13:04:23.469Z,96605.00
2019-03-19T13:06:55.584Z,96603.00
2019-03-19T13:09:27.989Z,96604.00
2019-03-19T13:12:00.121Z,96599.00
2019-03-19T13:14:31.992Z,96599.00
2019-03-19T13:17:03.845Z,96606.00
2019-03-19T13:19:35.711Z,96602.00
2019-03-19T13:22:07.588Z,96597.00
2019-03-19T13:24:39.743Z,96604.00
2019-03-19T13:27:12.163Z,96598.00
2019-03-19T13:29:44.743Z,96612.00
2019-03-19T13:32:16.579Z,96609.00
2019-03-19T13:34:48.477Z,96611.00
2019-03-19T13:37:21.073Z,96612.00
2019-03-19T13:39:52.969Z,96623.00
2019-03-19T13:42:25.283Z,96616.00
2019-03-19T13:44:57.197Z,96621.00
2019-03-19T13:47:29.628Z,96621.00
2019-03-19T13:50:01.530Z,96617.00
2019-03-19T13:52:33.445Z,96614.00
2019-03-19T13:55:06.193Z,96611.00
2019-03-19T13:57:38.349Z,96600.00
2019-03-19T14:00:12.405Z,96593.00
2019-03-19T14:02:44.494Z,96591.00
2019-03-19T14:05:16.608Z,96602.00
2019-03-19T14:07:48.472Z,96612.00
2019-03-19T14:10:20.362Z,96622.00
2019-03-19T14:12:52.764Z,96611.00
2019-03-19T14:15:24.651Z,96607.00
2019-03-19T14:17:57.517Z,96615.00
2019-03-19T14:20:29.520Z,96614.00
2019-03-19T14:23:01.768Z,96613.00
2019-03-19T14:25:33.679Z,96613.00
2019-03-19T14:28:05.892Z,96614.00
2019-03-19T14:30:38.655Z,96615.00
2019-03-19T14:33:10.773Z,96617.00
2019-03-19T14:35:42.984Z,96625.00
2019-03-19T14:38:14.813Z,96617.00
2019-03-19T14:40:47.411Z,96617.00
2019-03-19T14:43:19.250Z,96609.00
2019-03-19T14:45:51.139Z,96608.00
2019-03-19T14:48:23.815Z,96607.00
2019-03-19T14:50:56.057Z,96610.00
2019-03-19T14:53:28.346Z,96614.00
2019-03-19T14:56:00.782Z,96620.00
2019-03-19T14:58:32.891Z,96619.00
2019-03-19T15:01:04.971Z,96629.00
2019-03-19T15:03:37.096Z,96630.00
2019-03-19T15:06:09.340Z,96647.00
2019-03-19T15:08:44.351Z,96637.00
2019-03-19T15:11:17.301Z,96638.00
2019-03-19T15:13:49.868Z,96642.00
2019-03-19T15:16:22.734Z,96641.00
2019-03-19T15:18:55.152Z,96636.00
2019-03-19T15:21:27.427Z,96628.00
2019-03-19T15:23:59.423Z,96636.00
2019-03-19T15:26:32.617Z,96632.00
2019-03-19T15:29:04.833Z,96630.00
2019-03-19T15:31:37.490Z,96632.00
2019-03-19T15:34:09.457Z,96627.00
2019-03-19T15:36:41.879Z,96625.00
2019-03-19T15:39:13.871Z,96630.00
2019-03-19T15:41:45.920Z,96635.00
2019-03-19T15:44:17.743Z,96634.00
2019-03-19T15:46:49.834Z,96633.00
2019-03-19T15:49:21.832Z,96639.00
2019-03-19T15:51:54.054Z,96638.00
2019-03-19T15:54:26.772Z,96644.00
2019-03-19T15:56:58.855Z,96649.00
2019-03-19T15:59:30.728Z,96654.00
2019-03-19T16:02:02.953Z,96655.00
2019-03-19T16:04:34.962Z,96652.00
2019-03-19T16:07:07.605Z,96661.00
2019-03-19T16:09:40.285Z,96670.00
2019-03-19T16:12:12.268Z,96678.00
2019-03-19T16:14:44.193Z,96677.00
2019-03-19T16:17:16.156Z,96680.00
2019-03-19T16:19:48.033Z,96681.00
2019-03-19T16:22:20.127Z,96692.00
2019-03-19T16:24:53.225Z,96694.00
2019-03-19T16:27:25.178Z,96707.00
2019-03-19T16:29:57.449Z,96702.00
2019-03-19T16:32:29.340Z,96701.00
2019-03-19T16:35:01.498Z,96696.00
2019-03-19T16:37:33.709Z,96696.00
2019-03-19T16:40:06.607Z,96706.00
2019-03-19T16:42:44.512Z,96705.00
2019-03-19T16:45:21.351Z,96710.00
2019-03-19T16:47:53.612Z,96712.00
2019-03-19T16:50:25.714Z,96717.00
2019-03-19T16:52:58.132Z,96721.00
2019-03-19T16:55:31.134Z,96730.00
2019-03-19T16:58:03.417Z,96729.00
2019-03-19T17:00:35.617Z,96739.00
2019-03-19T17:03:07.428Z,96751.00
2019-03-19T17:05:39.409Z,96748.00
2019-03-19T17:08:11.327Z,96747.00
2019-03-19T17:10:43.370Z,96752.00
2019-03-19T17:13:18.612Z,96761.00
2019-03-19T17:15:50.541Z,96770.00
2019-03-19T17:18:22.589Z,96776.00
2019-03-19T17:20:55.104Z,96780.00
2019-03-19T17:23:28.234Z,96786.00
2019-03-19T17:26:01.185Z,96787.00
2019-03-19T17:28:47.565Z,96788.00
2019-03-19T17:31:20.415Z,96801.00
2019-03-19T17:33:56.666Z,96806.00
2019-03-19T17:36:36.411Z,96803.00
2019-03-19T17:39:13.219Z,96814.00
2019-03-19T17:41:47.083Z,96815.00
2019-03-19T17:44:20.542Z,96816.00
2019-03-19T17:46:52.555Z,96821.00
2019-03-19T17:49:24.571Z,96822.00
2019-03-19T17:52:05.094Z,96825.00
2019-03-19T17:54:33.163Z,96830.00
2019-03-19T17:57:05.242Z,96825.00
2019-03-19T17:59:37.477Z,96835.00
2019-03-19T18:02:09.338Z,96838.00
2019-03-19T18:04:41.178Z,96850.00
2019-03-19T18:07:13.044Z,96848.00
2019-03-19T18:09:45.609Z,96848.00
2019-03-19T18:12:17.786Z,96851.00
2019-03-19T18:14:49.602Z,96854.00
2019-03-19T18:17:21.510Z,96866.00
2019-03-19T18:19:53.953Z,96862.00
2019-03-19T18:22:26.145Z,96867.00
2019-03-19T18:24:57.958Z,96872.00
2019-03-19T18:27:30.121Z,96872.00
2019-03-19T18:30:01.947Z,96878.00
2019-03-19T18:32:35.391Z,96882.00
2019-03-19T18:35:08.262Z,96890.00
2019-03-19T18:37:40.452Z,96887.00
2019-03-19T18:40:12.617Z,96884.00
2019-03-19T18:42:44.496Z,96896.00
2019-03-19T18:45:16.741Z,96900.00
2019-03-19T18:47:49.247Z,96901.00
2019-03-19T18:50:21.576Z,96907.00
2019-03-19T18:52:53.581Z,96909.00
2019-03-19T18:55:25.450Z,96905.00
2019-03-19T18:57:57.720Z,96917.00
2019-03-19T19:00:29.911Z,96915.00
2019-03-19T19:03:01.783Z,96915.00
2019-03-19T19:05:33.919Z,96921.00
2019-03-19T19:08:05.792Z,96921.00
2019-03-19T19:10:37.641Z,96925.00
2019-03-19T19:13:09.749Z,96923.00
2019-03-19T19:15:41.587Z,96941.00
2019-03-19T19:18:13.807Z,96926.00
2019-03-19T19:20:47.042Z,96935.00
2019-03-19T19:23:18.922Z,96946.00
2019-03-19T19:25:51.401Z,96943.00
2019-03-19T19:28:23.571Z,96943.00
2019-03-19T19:30:55.712Z,96943.00
2019-03-19T19:33:27.594Z,96951.00
2019-03-19T19:35:59.420Z,96952.00
2019-03-19T19:38:31.359Z,96958.00
2019-03-19T19:41:03.514Z,96959.00
2019-03-19T19:43:35.995Z,96964.00
2019-03-19T19:46:08.087Z,96970.00
2019-03-19T19:48:39.967Z,96962.00
2019-03-19T19:51:11.887Z,96970.00
2019-03-19T19:53:44.013Z,96975.00
2019-03-19T19:56:16.318Z,96981.00
2019-03-19T19:58:48.744Z,96975.00
2019-03-19T20:01:20.609Z,96980.00
2019-03-19T20:03:52.490Z,96986.00
2019-03-19T20:06:25.045Z,96979.00
2019-03-19T20:08:56.918Z,96979.00
2019-03-19T20:11:28.817Z,96974.00
2019-03-19T20:14:00.927Z,96987.00
2019-03-19T20:16:33.394Z,96973.00
2019-03-19T20:19:05.726Z,96972.00
2019-03-19T20:21:39.011Z,96983.00
2019-03-19T20:24:11.255Z,96980.00
2019-03-19T20:26:43.418Z,96979.00
2019-03-19T20:29:15.575Z,96975.00
2019-03-19T20:31:48.486Z,96984.00
2019-03-19T20:34:20.311Z,96992.00
2019-03-19T20:36:52.468Z,96984.00
2019-03-19T20:39:24.325Z,96992.00
2019-03-19T20:41:56.226Z,96999.00
2019-03-19T20:44:28.637Z,96997.00
2019-03-19T20:47:01.745Z,97004.00
2019-03-19T20:49:34.217Z,97000.00
2019-03-19T20:52:06.897Z,97012.00
2019-03-19T20:54:39.117Z,97007.00
2019-03-19T20:57:11.999Z,97019.00
2019-03-19T20:59:44.651Z,97009.00
2019-03-19T21:02:17.010Z,97016.00
2019-03-19T21:04:49.194Z,97010.00
2019-03-19T21:07:23.435Z,97023.00
2019-03-19T21:09:55.957Z,97026.00
2019-03-19T21:12:27.832Z,97021.00
2019-03-19T21:14:59.671Z,97026.00
2019-03-19T21:17:32.128Z,97031.00
2019-03-19T21:20:04.396Z,97037.00
2019-03-19T21:22:36.295Z,97033.00
2019-03-19T21:25:08.293Z,97042.00
2019-03-19T21:27:40.175Z,97041.00
2019-03-19T21:30:12.368Z,97042.00
2019-03-19T21:32:44.276Z,97042.00
2019-03-19T21:35:17.116Z,97038.00
2019-03-19T21:37:49.453Z,97047.00
2019-03-19T21:40:22.074Z,97048.00
2019-03-19T21:42:54.058Z,97045.00
2019-03-19T21:45:25.954Z,97047.00
2019-03-19T21:47:58.365Z,97047.00
2019-03-19T21:50:30.198Z,97052.00
2019-03-19T21:53:02.062Z,97042.00
2019-03-19T21:55:34.821Z,97056.00
2019-03-19T21:58:06.728Z,97050.00
2019-03-19T22:00:39.161Z,97053.00
2019-03-19T22:03:11.023Z,97052.00
2019-03-19T22:05:43.156Z,97053.00
2019-03-19T22:08:15.266Z,97065.00
2019-03-19T22:10:47.391Z,97054.00
2019-03-19T22:13:19.672Z,97059.00
2019-03-19T22:15:52.148Z,97055.00
2019-03-19T22:18:24.940Z,97062.00
2019-03-19T22:20:57.209Z,97062.00
2019-03-19T22:23:29.069Z,97065.00
2019-03-19T22:26:01.105Z,97072.00
2019-03-19T22:28:33.538Z,97066.00
2019-03-19T22:31:05.506Z,97065.00
2019-03-19T22:33:37.856Z,97064.00
2019-03-19T22:36:11.942Z,97060.00
2019-03-19T22:38:44.091Z,97071.00
2019-03-19T22:41:16.023Z,97070.00
2019-03-19T22:43:48.543Z,97072.00
2019-03-19T22:46:21.945Z,97070.00
2019-03-19T22:48:54.336Z,97074.00
2019-03-19T22:51:26.566Z,97079.00
2019-03-19T22:53:59.112Z,97080.00
2019-03-19T22:56:31.826Z,97078.00
2019-03-19T22:59:04.849Z,97071.00
2019-03-19T23:01:36.860Z,97084.00
2019-03-19T23:04:08.884Z,97076.00
2019-03-19T23:06:40.920Z,97082.00
2019-03-19T23:09:12.886Z,97091.00
2019-03-19T23:11:45.209Z,97089.00
2019-03-19T23:14:17.860Z,97088.00
2019-03-19T23:16:49.881Z,97096.00
2019-03-19T23:19:23.021Z,97091.00
2019-03-19T23:21:55.030Z,97091.00
2019-03-19T23:24:26.910Z,97095.00
2019-03-19T23:27:00.686Z,97099.00
2019-03-19T23:29:32.535Z,97106.00
2019-03-19T23:32:04.412Z,97100.00
2019-03-19T23:34:38.708Z,97098.00
2019-03-19T23:37:10.460Z,97102.00
2019-03-19T23:39:42.791Z,97102.00
2019-03-19T23:42:14.994Z,97103.00
2019-03-19T23:44:47.268Z,97108.00
2019-03-19T23:47:19.370Z,97116.00
2019-03-19T23:49:52.151Z,97109.00
2019-03-19T23:52:24.342Z,97100.00
2019-03-19T23:54:57.020Z,97107.00
2019-03-19T23:57:29.295Z,97111.00
